Time;durP1;ratioP1;P1;durP2;ratioP2;P2;SDS_P1;SDS_P2;PMS_P1;PMS_P2;Temp;Humidity;BMP_temperature;BMP_pressure;BME280_temperature;BME280_humidity;BME280_pressure;Samples;Min_cycle;Max_cycle;Signal;HPM_P1;HPM_P2
2021/03/14 00:00:56;;;;;;;1.25;0.47;;;20.60;87.30;;;;;;5061637;28;20504;-70
2021/03/14 00:03:26;;;;;;;1.60;0.20;;;20.60;87.20;;;;;;5065762;28;20639;-68
2021/03/14 00:05:54;;;;;;;1.02;0.30;;;20.60;88.50;;;;;;5067984;28;20033;-71
2021/03/14 00:08:26;;;;;;;1.77;0.20;;;20.60;88.30;;;;;;5067769;28;20043;-67
2021/03/14 00:10:56;;;;;;;1.17;0.15;;;20.50;87.70;;;;;;5064884;28;20109;-67
2021/03/14 00:13:27;;;;;;;0.35;0.10;;;20.40;89.30;;;;;;5065851;28;20052;-67
2021/03/14 00:15:54;;;;;;;1.65;0.10;;;20.30;88.30;;;;;;5066375;28;20151;-70
2021/03/14 00:18:33;;;;;;;1.13;0.10;;;20.30;88.00;;;;;;5074100;28;20120;-68
2021/03/14 00:21:02;;;;;;;2.25;0.17;;;20.30;88.20;;;;;;5068240;28;20556;-68
2021/03/14 00:23:29;;;;;;;3.60;0.10;;;20.20;88.90;;;;;;5068435;28;20043;-69
2021/03/14 00:25:57;;;;;;;0.70;0.10;;;20.00;88.30;;;;;;5071703;28;20100;-69
2021/03/14 00:28:25;;;;;;;2.83;0.20;;;19.90;89.80;;;;;;5061808;28;20403;-68
2021/03/14 00:30:54;;;;;;;1.30;0.20;;;19.70;89.40;;;;;;5062980;28;20071;-71
2021/03/14 00:33:24;;;;;;;1.73;0.30;;;19.70;89.50;;;;;;5068930;28;20056;-67
2021/03/14 00:35:51;;;;;;;0.75;0.10;;;19.90;89.00;;;;;;5073263;28;21205;-69
2021/03/14 00:38:19;;;;;;;0.50;0.10;;;19.90;88.40;;;;;;5071700;28;20110;-67
2021/03/14 00:40:46;;;;;;;3.30;0.30;;;20.00;88.50;;;;;;5071748;28;20044;-68
2021/03/14 00:43:14;;;;;;;1.70;0.30;;;20.30;87.80;;;;;;5066890;28;20056;-70
2021/03/14 00:45:41;;;;;;;0.43;0.20;;;20.50;86.40;;;;;;5070049;28;20032;-67
2021/03/14 00:48:09;;;;;;;0.32;0.10;;;20.60;87.00;;;;;;5067842;28;20024;-69
2021/03/14 00:50:39;;;;;;;0.80;0.20;;;20.50;86.90;;;;;;5067086;28;20478;-67
2021/03/14 00:53:07;;;;;;;1.08;0.50;;;20.30;87.20;;;;;;5066274;28;20769;-70
2021/03/14 00:55:34;;;;;;;0.85;0.10;;;20.20;87.90;;;;;;5071929;28;20048;-67
2021/03/14 00:58:03;;;;;;;0.40;0.20;;;20.00;88.00;;;;;;5066583;28;20031;-68
2021/03/14 01:00:30;;;;;;;1.58;0.10;;;19.80;86.60;;;;;;5064098;28;20032;-67
2021/03/14 01:02:58;;;;;;;0.75;0.10;;;19.40;88.70;;;;;;5065305;28;20052;-68
2021/03/14 01:05:26;;;;;;;0.38;0.05;;;19.40;89.80;;;;;;5071207;28;20020;-68
2021/03/14 01:07:57;;;;;;;1.00;0.10;;;19.50;88.20;;;;;;5066833;28;20050;-67
2021/03/14 01:10:25;;;;;;;0.65;0.10;;;19.90;87.30;;;;;;5073874;28;20056;-68
2021/03/14 01:12:52;;;;;;;0.45;0.10;;;19.90;88.00;;;;;;5060691;28;20394;-68
2021/03/14 01:15:20;;;;;;;0.38;0.10;;;20.00;86.30;;;;;;5067000;28;20549;-67
2021/03/14 01:17:47;;;;;;;1.38;0.05;;;20.00;86.60;;;;;;5070982;28;20568;-69
2021/03/14 01:20:18;;;;;;;0.65;0.10;;;19.90;86.90;;;;;;5067144;28;20032;-69
2021/03/14 01:22:46;;;;;;;2.67;0.20;;;20.00;86.80;;;;;;5064032;28;20027;-69
2021/03/14 01:25:14;;;;;;;0.40;0.35;;;20.20;85.50;;;;;;5066805;28;20024;-68
2021/03/14 01:27:48;;;;;;;1.45;0.10;;;20.20;85.70;;;;;;5068396;28;20025;-69
2021/03/14 01:30:18;;;;;;;0.80;0.10;;;20.00;87.00;;;;;;5065970;28;20379;-66
2021/03/14 01:32:46;;;;;;;0.63;0.28;;;19.90;86.70;;;;;;5066211;28;20033;-68
2021/03/14 01:35:15;;;;;;;0.38;0.10;;;20.00;86.60;;;;;;5066373;28;20051;-67
2021/03/14 01:37:43;;;;;;;2.80;0.35;;;20.00;86.50;;;;;;5061001;28;20505;-67
2021/03/14 01:40:14;;;;;;;1.25;0.10;;;20.00;84.90;;;;;;5068666;28;20016;-68
2021/03/14 01:42:41;;;;;;;0.50;0.10;;;20.00;85.20;;;;;;5068375;28;20082;-67
2021/03/14 01:45:09;;;;;;;1.92;0.52;;;20.00;85.60;;;;;;5068026;28;20019;-69
2021/03/14 01:47:39;;;;;;;0.65;0.15;;;20.20;84.60;;;;;;5060335;28;20442;-67
2021/03/14 01:50:12;;;;;;;2.10;0.10;;;20.20;85.40;;;;;;5065901;28;20099;-68
2021/03/14 01:52:39;;;;;;;0.55;0.10;;;20.10;85.30;;;;;;5062931;28;20486;-67
2021/03/14 01:55:09;;;;;;;0.17;0.10;;;19.90;86.20;;;;;;5061616;28;20029;-69
2021/03/14 01:57:37;;;;;;;1.13;0.20;;;19.90;86.20;;;;;;5077606;28;20401;-67
2021/03/14 02:00:10;;;;;;;1.55;0.15;;;19.60;85.60;;;;;;5057094;28;20042;-68
2021/03/14 02:02:38;;;;;;;0.60;0.22;;;19.40;88.30;;;;;;5069895;28;20035;-72
2021/03/14 02:05:08;;;;;;;0.10;0.10;;;19.50;85.30;;;;;;5074278;28;20390;-68
2021/03/14 02:07:38;;;;;;;2.58;0.20;;;19.60;85.50;;;;;;5069336;28;20123;-70
2021/03/14 02:10:07;;;;;;;1.33;0.30;;;19.60;85.60;;;;;;5056437;28;20028;-66
2021/03/14 02:12:41;;;;;;;0.10;0.10;;;19.70;85.60;;;;;;5067760;28;20037;-67
2021/03/14 02:15:10;;;;;;;3.47;0.20;;;19.70;86.60;;;;;;5063471;28;20490;-68
2021/03/14 02:17:40;;;;;;;1.25;0.20;;;19.40;87.60;;;;;;5050328;28;20029;-68
2021/03/14 02:20:19;;;;;;;0.20;0.10;;;19.30;86.90;;;;;;5072086;28;20074;-68
2021/03/14 02:22:49;;;;;;;2.00;0.30;;;19.30;88.00;;;;;;5066178;28;20024;-67
2021/03/14 02:25:26;;;;;;;2.15;0.30;;;19.20;87.70;;;;;;5068800;28;20107;-69
2021/03/14 02:27:54;;;;;;;1.02;0.28;;;19.30;86.40;;;;;;5075404;28;20093;-67
2021/03/14 02:30:23;;;;;;;1.23;0.20;;;19.30;85.00;;;;;;5061702;28;20098;-67
2021/03/14 02:32:53;;;;;;;1.90;0.20;;;19.20;85.90;;;;;;5064076;28;20085;-69
2021/03/14 02:35:22;;;;;;;1.30;0.25;;;19.20;86.40;;;;;;5072006;28;20090;-68
2021/03/14 02:37:50;;;;;;;2.70;0.25;;;19.10;86.90;;;;;;5066708;28;20117;-68
2021/03/14 02:40:20;;;;;;;5.28;0.43;;;19.10;85.70;;;;;;5063966;28;20043;-69
2021/03/14 02:42:52;;;;;;;1.23;0.40;;;19.00;84.90;;;;;;5065568;28;20035;-68
2021/03/14 02:45:19;;;;;;;1.88;0.20;;;18.90;84.00;;;;;;5063533;28;20039;-68
2021/03/14 02:47:47;;;;;;;1.83;0.80;;;18.80;85.70;;;;;;5069117;28;20047;-67
2021/03/14 02:50:17;;;;;;;3.20;0.40;;;18.70;85.20;;;;;;5067989;28;20834;-67
2021/03/14 02:52:46;;;;;;;2.80;0.40;;;18.70;86.10;;;;;;5071582;28;20051;-68
2021/03/14 02:55:15;;;;;;;2.97;0.70;;;18.60;86.00;;;;;;5057511;28;20503;-68
2021/03/14 02:57:45;;;;;;;3.35;0.40;;;18.60;85.20;;;;;;5066069;28;20070;-68
2021/03/14 03:00:20;;;;;;;5.45;0.90;;;18.60;85.20;;;;;;5066121;28;20119;-69
2021/03/14 03:02:49;;;;;;;3.35;0.52;;;18.60;86.10;;;;;;5065349;28;20073;-67
2021/03/14 03:05:20;;;;;;;3.17;0.50;;;18.50;87.10;;;;;;5065045;28;20063;-69
2021/03/14 03:07:54;;;;;;;2.45;0.40;;;18.50;88.10;;;;;;5067228;28;20670;-70
2021/03/14 03:10:24;;;;;;;5.13;0.38;;;18.50;86.60;;;;;;5068023;28;20036;-68
2021/03/14 03:12:52;;;;;;;2.15;0.73;;;18.40;85.40;;;;;;5064620;28;20040;-67
2021/03/14 03:15:23;;;;;;;1.73;0.30;;;18.30;86.40;;;;;;5072318;28;20062;-66
2021/03/14 03:17:52;;;;;;;3.45;0.40;;;18.10;87.60;;;;;;5068878;28;20086;-68
2021/03/14 03:20:19;;;;;;;2.60;0.50;;;18.10;87.30;;;;;;5049673;28;20040;-67
2021/03/14 03:22:48;;;;;;;5.05;0.60;;;18.10;87.90;;;;;;5064624;28;20029;-67
2021/03/14 03:25:16;;;;;;;1.98;0.30;;;18.10;88.20;;;;;;5065567;28;20047;-67
2021/03/14 03:27:44;;;;;;;3.72;0.30;;;17.90;89.40;;;;;;5066310;28;20838;-67
2021/03/14 03:30:14;;;;;;;3.05;0.30;;;17.90;90.10;;;;;;5067028;28;20087;-67
2021/03/14 03:32:41;;;;;;;1.27;0.47;;;17.90;90.30;;;;;;5065430;28;20529;-67
2021/03/14 03:35:14;;;;;;;0.60;0.20;;;18.10;90.10;;;;;;5073475;28;20024;-68
2021/03/14 03:37:42;;;;;;;2.35;0.38;;;18.20;90.10;;;;;;5051533;28;20037;-68
2021/03/14 03:40:12;;;;;;;1.35;0.30;;;18.20;90.00;;;;;;5065582;28;20063;-69
2021/03/14 03:43:02;;;;;;;4.80;1.58;;;18.10;89.30;;;;;;5064318;28;20032;-67
2021/03/14 03:45:33;;;;;;;2.75;0.60;;;18.20;88.40;;;;;;5040741;28;21019;-68
2021/03/14 03:48:01;;;;;;;3.40;0.45;;;18.30;87.20;;;;;;5073336;28;20021;-68
2021/03/14 03:50:30;;;;;;;1.70;0.38;;;18.30;87.30;;;;;;5068974;28;20055;-69
2021/03/14 03:52:58;;;;;;;4.07;0.30;;;18.20;85.60;;;;;;5061946;28;20040;-68
2021/03/14 03:55:27;;;;;;;5.88;0.75;;;18.10;86.30;;;;;;5069922;28;20147;-69
2021/03/14 03:57:55;;;;;;;3.05;0.60;;;18.10;86.00;;;;;;5076910;28;20068;-70
2021/03/14 04:00:24;;;;;;;4.38;0.35;;;18.10;85.50;;;;;;5067518;28;20070;-68
2021/03/14 04:02:51;;;;;;;7.35;0.65;;;18.10;85.10;;;;;;5049565;28;20029;-69
2021/03/14 04:05:19;;;;;;;3.92;0.45;;;18.10;84.30;;;;;;5069286;28;20086;-68
2021/03/14 04:07:49;;;;;;;1.73;0.38;;;18.00;85.30;;;;;;5077510;28;20024;-69
2021/03/14 04:10:24;;;;;;;3.58;1.48;;;17.90;84.30;;;;;;5062763;28;20137;-68
2021/03/14 04:12:53;;;;;;;3.90;0.60;;;18.00;83.80;;;;;;5066914;28;20069;-67
2021/03/14 04:15:23;;;;;;;3.10;0.60;;;17.90;84.40;;;;;;5061945;28;20093;-68
2021/03/14 04:17:53;;;;;;;7.57;0.65;;;17.90;84.50;;;;;;5065223;28;20029;-71
2021/03/14 04:20:28;;;;;;;3.33;0.38;;;17.90;86.20;;;;;;5063044;28;20169;-68
2021/03/14 04:22:57;;;;;;;;;;;17.80;86.50;;;;;;5061418;28;20037;-67
2021/03/14 04:25:26;;;;;;;5.60;0.82;;;17.70;87.20;;;;;;5065438;28;19916;-69
2021/03/14 04:27:56;;;;;;;4.03;0.50;;;17.80;87.50;;;;;;5065921;28;21942;-68
2021/03/14 04:30:25;;;;;;;5.50;0.50;;;17.80;87.20;;;;;;5067460;28;20055;-68
2021/03/14 04:32:54;;;;;;;3.38;0.60;;;17.80;88.20;;;;;;5055761;28;20055;-67
2021/03/14 04:35:22;;;;;;;3.17;0.85;;;17.80;86.80;;;;;;5072618;28;20395;-69
2021/03/14 04:37:50;;;;;;;3.47;0.30;;;17.80;85.60;;;;;;5071912;28;20727;-68
2021/03/14 04:40:19;;;;;;;7.20;1.42;;;17.70;85.50;;;;;;5068610;28;20625;-69
2021/03/14 04:42:51;;;;;;;5.03;0.60;;;17.70;85.10;;;;;;5065786;28;20474;-71
2021/03/14 04:45:23;;;;;;;3.90;0.40;;;17.60;85.30;;;;;;5063809;28;20032;-70
2021/03/14 04:47:51;;;;;;;3.05;0.30;;;17.40;87.00;;;;;;5074298;28;20036;-69
2021/03/14 04:50:22;;;;;;;2.88;0.60;;;17.40;86.60;;;;;;5073258;28;20034;-68
2021/03/14 04:52:54;;;;;;;4.45;0.47;;;17.50;85.70;;;;;;5065485;28;20036;-69
2021/03/14 04:55:22;;;;;;;4.22;0.93;;;17.40;86.50;;;;;;5069139;28;20028;-68
2021/03/14 04:57:51;;;;;;;2.65;0.52;;;17.30;86.70;;;;;;5069132;28;20100;-68
2021/03/14 05:00:20;;;;;;;3.83;0.73;;;17.40;87.50;;;;;;5068430;28;20543;-68
2021/03/14 05:02:55;;;;;;;2.00;0.32;;;17.50;85.90;;;;;;5068651;28;20047;-68
2021/03/14 05:05:24;;;;;;;3.08;0.25;;;17.50;86.40;;;;;;5063468;28;20032;-70
2021/03/14 05:07:52;;;;;;;1.55;0.50;;;17.40;87.50;;;;;;5063936;28;20422;-69
2021/03/14 05:10:22;;;;;;;3.60;0.40;;;17.20;87.50;;;;;;5066571;28;20570;-70
2021/03/14 05:12:51;;;;;;;3.47;0.63;;;17.10;88.50;;;;;;5069085;28;20043;-69
2021/03/14 05:15:19;;;;;;;1.48;0.40;;;17.00;88.70;;;;;;5053596;28;20048;-69
2021/03/14 05:17:48;;;;;;;2.90;0.40;;;16.90;88.30;;;;;;5049090;28;20364;-67
2021/03/14 05:20:19;;;;;;;3.97;0.20;;;16.80;89.40;;;;;;5067198;28;20095;-70
2021/03/14 05:22:49;;;;;;;2.25;0.40;;;16.70;89.50;;;;;;5070148;28;20036;-69
2021/03/14 05:25:19;;;;;;;1.75;0.30;;;16.70;90.30;;;;;;5072490;28;20035;-68
2021/03/14 05:27:53;;;;;;;2.50;0.43;;;16.70;90.20;;;;;;5066390;28;20024;-68
2021/03/14 05:30:26;;;;;;;3.95;1.30;;;16.80;90.30;;;;;;5075242;28;20075;-68
2021/03/14 05:32:56;;;;;;;1.77;0.57;;;16.90;90.30;;;;;;5065498;28;20147;-68
2021/03/14 05:35:25;;;;;;;1.90;0.40;;;16.80;90.00;;;;;;5065827;28;21625;-68
2021/03/14 05:37:54;;;;;;;3.95;0.52;;;16.90;90.30;;;;;;5076907;28;20650;-68
2021/03/14 05:40:23;;;;;;;2.35;0.65;;;17.00;89.30;;;;;;5065418;28;20037;-68
2021/03/14 05:42:52;;;;;;;1.02;0.40;;;17.00;89.40;;;;;;5066359;28;20882;-69
2021/03/14 05:45:20;;;;;;;1.77;0.30;;;16.90;89.80;;;;;;5063794;28;20132;-70
2021/03/14 05:47:48;;;;;;;4.22;0.38;;;17.00;90.00;;;;;;5058942;28;20036;-68
2021/03/14 05:50:21;;;;;;;1.80;0.30;;;17.10;89.40;;;;;;5077060;28;20186;-68
2021/03/14 05:52:50;;;;;;;2.03;0.52;;;17.10;89.10;;;;;;5071630;28;20038;-69
2021/03/14 05:55:23;;;;;;;2.08;0.43;;;17.00;88.30;;;;;;5074507;28;20024;-68
2021/03/14 05:57:55;;;;;;;1.95;1.13;;;16.90;89.90;;;;;;5077061;28;20123;-69
2021/03/14 06:00:28;;;;;;;1.38;0.20;;;16.90;90.10;;;;;;5076160;28;20040;-67
2021/03/14 06:03:01;;;;;;;3.50;0.20;;;16.80;90.00;;;;;;5067567;28;20818;-68
2021/03/14 06:05:31;;;;;;;1.38;0.20;;;16.80;90.40;;;;;;5073746;28;20686;-70
2021/03/14 06:07:59;;;;;;;0.73;0.25;;;16.80;90.10;;;;;;5076230;28;20435;-68
2021/03/14 06:10:26;;;;;;;4.45;0.30;;;16.90;89.90;;;;;;5073695;28;20039;-68
2021/03/14 06:12:54;;;;;;;1.50;0.20;;;16.80;89.80;;;;;;5076525;28;20033;-69
2021/03/14 06:15:21;;;;;;;2.25;1.00;;;16.80;89.00;;;;;;5066584;28;20029;-70
2021/03/14 06:17:49;;;;;;;2.80;0.40;;;16.70;90.20;;;;;;5071000;28;20081;-69
2021/03/14 06:20:42;;;;;;;1.58;0.30;;;16.50;90.30;;;;;;5070635;28;20047;-70
2021/03/14 06:23:15;;;;;;;1.58;0.20;;;16.60;90.10;;;;;;5069752;28;20483;-70
2021/03/14 06:25:47;;;;;;;2.38;0.30;;;16.50;90.40;;;;;;5062400;28;20452;-69
2021/03/14 06:28:16;;;;;;;3.08;0.45;;;16.40;90.70;;;;;;5067719;28;20036;-68
2021/03/14 06:30:44;;;;;;;1.17;0.30;;;16.30;90.70;;;;;;5068166;28;20144;-68
2021/03/14 06:33:14;;;;;;;2.70;0.20;;;16.40;91.10;;;;;;5055265;28;20043;-69
2021/03/14 06:35:49;;;;;;;0.45;0.10;;;16.40;90.90;;;;;;5069236;28;20027;-68
2021/03/14 06:38:35;;;;;;;1.65;0.17;;;16.40;90.60;;;;;;5072900;28;20687;-70
2021/03/14 06:41:08;;;;;;;1.15;0.20;;;16.50;90.70;;;;;;5068242;28;20089;-68
2021/03/14 06:43:40;;;;;;;3.80;0.40;;;16.40;91.00;;;;;;5074208;28;20043;-69
2021/03/14 06:46:24;;;;;;;3.75;0.60;;;16.40;90.70;;;;;;5066085;28;20032;-68
2021/03/14 06:49:16;;;;;;;1.58;0.20;;;16.20;91.00;;;;;;5069108;28;20031;-69
2021/03/14 06:51:45;;;;;;;1.70;0.38;;;16.30;91.10;;;;;;5074082;28;20032;-68
2021/03/14 06:54:17;;;;;;;3.25;0.35;;;16.20;90.80;;;;;;5068577;28;20153;-68
2021/03/14 06:57:15;;;;;;;4.75;0.50;;;16.10;91.30;;;;;;5075857;28;20165;-69
2021/03/14 06:59:49;;;;;;;1.05;0.30;;;16.00;91.10;;;;;;5077223;28;20027;-69
2021/03/14 07:02:19;;;;;;;1.15;0.40;;;16.10;91.30;;;;;;5068852;28;20123;-69
2021/03/14 07:04:55;;;;;;;2.38;0.20;;;16.00;91.20;;;;;;5072256;28;20066;-68
2021/03/14 07:07:37;;;;;;;2.92;1.23;;;15.90;91.60;;;;;;5075197;28;20033;-70
2021/03/14 07:10:08;;;;;;;2.63;0.20;;;15.90;91.50;;;;;;5070831;28;20029;-69
2021/03/14 07:12:47;;;;;;;3.03;0.30;;;15.90;91.50;;;;;;5070400;28;20064;-69
2021/03/14 07:15:16;;;;;;;1.90;0.60;;;15.90;91.80;;;;;;5070657;28;20065;-70
2021/03/14 07:17:53;;;;;;;3.13;0.30;;;15.80;91.40;;;;;;5076935;28;20048;-70
2021/03/14 07:20:25;;;;;;;1.20;0.38;;;15.80;91.80;;;;;;5067137;28;20028;-70
2021/03/14 07:23:07;;;;;;;4.22;0.73;;;15.90;91.40;;;;;;5060647;28;21007;-69
2021/03/14 07:25:41;;;;;;;2.63;0.40;;;16.00;91.40;;;;;;5075607;28;20031;-69
2021/03/14 07:28:08;;;;;;;2.58;0.52;;;16.10;91.30;;;;;;5069824;28;20116;-69
2021/03/14 07:30:36;;;;;;;1.92;0.50;;;16.10;91.30;;;;;;5067769;28;20131;-69
2021/03/14 07:33:03;;;;;;;1.33;0.38;;;16.00;91.50;;;;;;5072578;28;20691;-69
2021/03/14 07:35:31;;;;;;;2.05;0.50;;;16.00;91.40;;;;;;5065211;28;20036;-68
2021/03/14 07:37:59;;;;;;;2.35;0.47;;;15.90;91.20;;;;;;5068340;28;20025;-70
2021/03/14 07:40:30;;;;;;;2.38;0.60;;;15.80;91.60;;;;;;5066382;28;20402;-69
2021/03/14 07:43:00;;;;;;;2.03;0.20;;;15.90;91.70;;;;;;5064404;28;20043;-73
2021/03/14 07:45:29;;;;;;;2.20;0.50;;;15.90;91.80;;;;;;5063337;28;21803;-69
2021/03/14 07:47:58;;;;;;;1.83;0.30;;;16.00;91.50;;;;;;5075473;28;20031;-71
2021/03/14 07:50:45;;;;;;;6.22;0.85;;;15.90;91.40;;;;;;5065412;28;20041;-70
2021/03/14 07:53:16;;;;;;;0.52;0.20;;;15.90;91.60;;;;;;5065868;28;20036;-68
2021/03/14 07:55:54;;;;;;;2.08;0.95;;;15.90;91.80;;;;;;5064250;28;20028;-68
2021/03/14 07:58:25;;;;;;;2.63;0.40;;;16.00;91.70;;;;;;5067242;28;20059;-71
2021/03/14 08:00:54;;;;;;;2.50;0.30;;;16.10;91.50;;;;;;5063886;28;20119;-69
2021/03/14 08:03:37;;;;;;;1.77;0.20;;;16.00;91.40;;;;;;5066627;28;20051;-68
2021/03/14 08:06:05;;;;;;;1.35;0.25;;;16.10;91.00;;;;;;5073932;28;21203;-69
2021/03/14 08:08:32;;;;;;;1.13;0.20;;;16.10;91.30;;;;;;5070667;28;20035;-69
2021/03/14 08:11:00;;;;;;;1.10;0.30;;;16.10;90.80;;;;;;5066935;28;20032;-69
2021/03/14 08:13:30;;;;;;;0.80;0.22;;;16.10;91.00;;;;;;5076882;28;20128;-70
2021/03/14 08:16:09;;;;;;;1.92;0.30;;;16.10;91.00;;;;;;5077304;28;20571;-69
2021/03/14 08:18:39;;;;;;;1.42;0.30;;;16.10;90.80;;;;;;5070899;28;20024;-70
2021/03/14 08:21:27;;;;;;;2.88;0.43;;;16.00;91.20;;;;;;5070440;28;21297;-70
2021/03/14 08:24:00;;;;;;;1.27;0.28;;;16.10;91.10;;;;;;5065475;28;20028;-69
2021/03/14 08:26:32;;;;;;;1.35;0.20;;;16.00;91.30;;;;;;5062195;28;20542;-68
2021/03/14 08:29:04;;;;;;;9.60;0.80;;;16.10;91.20;;;;;;5061377;28;20130;-68
2021/03/14 08:31:53;;;;;;;1.38;0.40;;;16.10;90.90;;;;;;5066003;28;20410;-68
2021/03/14 08:34:45;;;;;;;1.85;0.30;;;16.00;91.20;;;;;;5067189;28;20111;-69
2021/03/14 08:37:26;;;;;;;1.45;0.40;;;16.00;91.20;;;;;;5064271;28;20067;-69
2021/03/14 08:40:06;;;;;;;3.83;0.68;;;16.00;91.30;;;;;;5066010;28;20032;-67
2021/03/14 08:42:56;;;;;;;1.70;0.20;;;16.10;91.20;;;;;;5065789;28;20060;-67
2021/03/14 08:45:25;;;;;;;1.48;0.20;;;16.10;91.00;;;;;;5065398;28;20035;-67
2021/03/14 08:47:53;;;;;;;3.20;0.35;;;16.20;91.20;;;;;;5066424;28;21551;-69
2021/03/14 08:50:20;;;;;;;2.10;0.28;;;16.20;91.20;;;;;;5066900;28;20596;-68
2021/03/14 08:52:48;;;;;;;2.83;0.22;;;16.10;90.90;;;;;;5070754;28;20043;-68
2021/03/14 08:55:15;;;;;;;1.42;0.38;;;16.20;91.00;;;;;;5070978;28;20083;-68
2021/03/14 08:57:50;;;;;;;3.75;0.30;;;16.30;90.80;;;;;;5060708;28;20111;-69
2021/03/14 09:00:18;;;;;;;2.28;0.30;;;16.30;90.50;;;;;;5061831;28;21291;-68
2021/03/14 09:02:46;;;;;;;3.40;0.43;;;16.40;90.80;;;;;;5058573;28;20499;-68
2021/03/14 09:05:19;;;;;;;1.30;0.40;;;16.50;90.20;;;;;;5047082;28;20380;-70
2021/03/14 09:08:02;;;;;;;0.73;0.20;;;16.40;90.30;;;;;;5064336;28;20028;-69
2021/03/14 09:10:35;;;;;;;8.88;0.90;;;16.30;90.30;;;;;;5074446;28;20498;-68
2021/03/14 09:13:03;;;;;;;4.25;0.60;;;16.40;90.00;;;;;;5064175;28;20583;-69
2021/03/14 09:15:31;;;;;;;3.22;0.32;;;16.50;90.00;;;;;;5071972;28;20515;-69
2021/03/14 09:17:59;;;;;;;4.18;1.02;;;16.50;90.30;;;;;;5064272;28;20032;-69
2021/03/14 09:20:26;;;;;;;4.63;1.20;;;16.40;89.80;;;;;;5067963;28;20031;-68
2021/03/14 09:22:54;;;;;;;1.05;0.30;;;16.40;90.00;;;;;;5050307;28;20596;-68
2021/03/14 09:25:21;;;;;;;2.83;0.70;;;16.60;89.60;;;;;;5064310;28;20117;-69
2021/03/14 09:27:49;;;;;;;11.00;1.42;;;16.60;89.30;;;;;;5063000;28;20585;-71
2021/03/14 09:30:24;;;;;;;4.75;1.17;;;16.50;89.20;;;;;;5063130;28;20059;-70
2021/03/14 09:33:03;;;;;;;2.88;0.57;;;16.40;89.80;;;;;;5061737;28;20085;-70
2021/03/14 09:35:33;;;;;;;4.03;0.73;;;16.30;89.60;;;;;;5068886;28;20279;-72
2021/03/14 09:38:09;;;;;;;6.82;1.05;;;16.20;90.10;;;;;;5078725;28;20504;-70
2021/03/14 09:40:47;;;;;;;3.97;0.82;;;16.10;89.70;;;;;;5074320;28;20533;-71
2021/03/14 09:43:28;;;;;;;11.15;0.93;;;16.10;89.50;;;;;;5065009;28;20036;-71
2021/03/14 09:46:01;;;;;;;8.02;1.13;;;16.00;89.80;;;;;;5070410;28;20836;-70
2021/03/14 09:48:34;;;;;;;4.30;0.60;;;16.00;89.70;;;;;;5071559;28;20226;-70
2021/03/14 09:51:08;;;;;;;5.70;0.85;;;15.90;89.70;;;;;;5069091;28;20032;-67
2021/03/14 09:53:38;;;;;;;5.63;1.65;;;15.90;89.90;;;;;;5062567;28;20695;-72
2021/03/14 09:56:11;;;;;;;7.43;1.88;;;15.90;89.20;;;;;;5069138;28;20085;-67
2021/03/14 09:58:38;;;;;;;5.70;0.73;;;15.90;88.60;;;;;;5069731;28;20032;-68
2021/03/14 10:01:09;;;;;;;10.43;1.42;;;15.80;89.00;;;;;;5068388;28;20037;-68
2021/03/14 10:03:36;;;;;;;5.05;0.65;;;15.80;88.80;;;;;;5068342;28;20114;-69
2021/03/14 10:06:06;;;;;;;6.47;0.93;;;15.70;89.80;;;;;;5068272;28;20141;-68
2021/03/14 10:08:34;;;;;;;4.65;0.98;;;15.80;89.80;;;;;;5071361;28;20043;-67
2021/03/14 10:11:16;;;;;;;8.07;1.45;;;15.80;90.20;;;;;;5066382;28;20090;-68
2021/03/14 10:13:47;;;;;;;6.15;0.95;;;15.80;89.90;;;;;;5070741;28;20040;-68
2021/03/14 10:16:18;;;;;;;4.22;0.80;;;15.70;89.70;;;;;;5049648;28;20033;-68
2021/03/14 10:18:46;;;;;;;12.73;1.35;;;15.70;88.90;;;;;;5066407;28;20032;-67
2021/03/14 10:21:19;;;;;;;6.07;0.80;;;15.70;88.90;;;;;;5064217;28;20410;-68
2021/03/14 10:23:47;;;;;;;5.88;0.93;;;15.80;89.40;;;;;;5059660;28;20025;-70
2021/03/14 10:26:16;;;;;;;6.28;1.45;;;15.70;89.20;;;;;;5065134;28;20028;-68
2021/03/14 10:28:46;;;;;;;5.60;0.95;;;15.70;89.20;;;;;;5065861;28;20048;-71
2021/03/14 10:31:14;;;;;;;4.50;0.70;;;15.70;89.80;;;;;;5066689;28;20140;-69
2021/03/14 10:33:45;;;;;;;4.57;0.60;;;15.70;89.40;;;;;;5067773;28;20044;-67
2021/03/14 10:36:15;;;;;;;6.80;0.82;;;15.80;88.80;;;;;;5071393;28;20020;-69
2021/03/14 10:38:46;;;;;;;7.72;1.00;;;15.70;88.90;;;;;;5070397;28;20047;-69
2021/03/14 10:41:17;;;;;;;4.45;1.67;;;15.70;89.00;;;;;;5067419;28;20042;-71
2021/03/14 10:43:46;;;;;;;7.32;3.00;;;15.70;89.10;;;;;;5064961;28;20036;-68
2021/03/14 10:46:16;;;;;;;4.78;0.80;;;15.70;90.00;;;;;;5073261;28;20474;-70
2021/03/14 10:48:43;;;;;;;5.18;0.88;;;15.70;89.20;;;;;;5070560;28;20032;-70
2021/03/14 10:51:10;;;;;;;3.63;1.05;;;15.70;88.80;;;;;;5076927;28;20034;-70
2021/03/14 10:53:38;;;;;;;5.75;1.83;;;15.70;89.50;;;;;;5070759;28;20044;-69
2021/03/14 10:56:15;;;;;;;5.55;1.65;;;15.70;89.30;;;;;;5063037;28;20600;-76
2021/03/14 10:58:44;;;;;;;10.15;3.22;;;15.70;89.00;;;;;;5070428;28;20033;-68
2021/03/14 11:01:16;;;;;;;5.30;1.50;;;15.60;89.30;;;;;;5071707;28;20040;-69
2021/03/14 11:03:44;;;;;;;7.63;1.10;;;15.60;89.10;;;;;;5068818;28;20031;-69
2021/03/14 11:06:15;;;;;;;6.22;1.02;;;15.70;88.90;;;;;;5066241;28;20028;-67
2021/03/14 11:08:49;;;;;;;7.95;0.93;;;15.70;88.10;;;;;;5067942;28;20136;-73
2021/03/14 11:11:17;;;;;;;7.32;1.65;;;15.70;88.60;;;;;;5073950;28;20482;-69
2021/03/14 11:13:47;;;;;;;6.15;0.60;;;15.70;87.80;;;;;;5064660;28;20137;-67
2021/03/14 11:16:14;;;;;;;7.38;0.85;;;15.70;88.60;;;;;;5072014;28;20189;-66
2021/03/14 11:18:42;;;;;;;4.82;1.15;;;15.70;88.30;;;;;;5075105;28;20028;-68
2021/03/14 11:21:11;;;;;;;3.97;0.60;;;15.70;88.30;;;;;;5073950;28;20028;-67
2021/03/14 11:23:38;;;;;;;4.68;1.73;;;15.60;88.80;;;;;;5071182;28;20035;-71
2021/03/14 11:26:05;;;;;;;4.80;0.50;;;15.70;88.40;;;;;;5067604;28;20465;-72
2021/03/14 11:28:43;;;;;;;8.45;0.68;;;15.70;87.80;;;;;;5072497;28;20039;-70
2021/03/14 11:31:11;;;;;;;6.63;0.77;;;15.70;88.70;;;;;;5071360;28;20043;-68
2021/03/14 11:33:39;;;;;;;10.38;1.30;;;15.70;88.40;;;;;;5066089;28;20056;-66
2021/03/14 11:36:06;;;;;;;10.68;1.13;;;15.60;88.70;;;;;;5069670;28;20103;-66
2021/03/14 11:38:34;;;;;;;11.25;0.90;;;15.60;88.60;;;;;;5068546;28;20490;-69
2021/03/14 11:41:01;;;;;;;3.95;0.85;;;15.60;88.60;;;;;;5067666;28;20031;-66
2021/03/14 11:43:29;;;;;;;6.85;1.20;;;15.60;88.90;;;;;;5069112;28;20665;-70
2021/03/14 11:45:57;;;;;;;4.38;0.63;;;15.60;88.40;;;;;;5068688;28;20073;-67
2021/03/14 11:48:24;;;;;;;5.40;0.93;;;15.60;88.80;;;;;;5066513;28;20107;-69
2021/03/14 11:50:51;;;;;;;8.68;1.65;;;15.60;88.60;;;;;;5069644;28;20143;-71
2021/03/14 11:53:20;;;;;;;2.80;0.50;;;15.60;88.10;;;;;;5065764;28;20169;-67
2021/03/14 11:55:47;;;;;;;8.52;1.10;;;15.60;88.70;;;;;;5065170;28;20487;-67
2021/03/14 11:58:15;;;;;;;2.92;0.70;;;15.60;89.00;;;;;;5076378;28;20040;-68
2021/03/14 12:00:42;;;;;;;3.80;0.77;;;15.60;89.20;;;;;;5066657;28;20036;-67
2021/03/14 12:03:09;;;;;;;4.43;1.13;;;15.60;89.10;;;;;;5065662;28;20059;-67
2021/03/14 12:05:37;;;;;;;6.85;0.75;;;15.60;88.80;;;;;;5074995;28;20020;-67
2021/03/14 12:08:05;;;;;;;4.18;0.40;;;15.60;88.80;;;;;;5067095;28;20032;-68
2021/03/14 12:10:32;;;;;;;3.70;0.40;;;15.60;88.40;;;;;;5066883;28;20534;-70
2021/03/14 12:13:00;;;;;;;3.15;1.63;;;15.60;89.20;;;;;;5065471;28;20037;-68
2021/03/14 12:15:27;;;;;;;4.15;0.77;;;15.60;89.00;;;;;;5067035;28;20151;-70
2021/03/14 12:17:54;;;;;;;4.32;0.80;;;15.60;89.10;;;;;;5078938;28;20116;-68
2021/03/14 12:20:22;;;;;;;4.57;1.52;;;15.60;89.50;;;;;;5068345;28;20040;-68
2021/03/14 12:22:52;;;;;;;4.72;0.55;;;15.60;89.10;;;;;;5064561;28;20032;-70
2021/03/14 12:25:20;;;;;;;6.05;0.77;;;15.60;89.10;;;;;;5068584;28;20059;-70
2021/03/14 12:27:51;;;;;;;2.25;0.63;;;15.60;89.20;;;;;;5065379;28;20036;-69
2021/03/14 12:30:29;;;;;;;3.17;0.80;;;15.60;89.20;;;;;;5069936;28;20109;-70
2021/03/14 12:32:57;;;;;;;3.25;0.55;;;15.60;89.40;;;;;;5062759;28;20040;-73
2021/03/14 12:35:24;;;;;;;6.53;1.00;;;15.60;89.10;;;;;;5066001;28;21252;-73
2021/03/14 12:37:52;;;;;;;4.95;0.60;;;15.60;89.50;;;;;;5063431;28;20540;-67
2021/03/14 12:40:20;;;;;;;6.15;0.68;;;15.60;89.20;;;;;;5067672;28;20031;-68
2021/03/14 12:42:48;;;;;;;6.75;0.75;;;15.60;89.90;;;;;;5060299;28;20558;-67
2021/03/14 12:45:15;;;;;;;2.72;0.60;;;15.60;89.70;;;;;;5062457;28;20024;-67
2021/03/14 12:47:43;;;;;;;5.90;1.05;;;15.60;89.60;;;;;;5068777;28;20036;-68
2021/03/14 12:50:11;;;;;;;8.00;0.80;;;15.60;89.50;;;;;;5072072;28;20059;-67
2021/03/14 12:52:39;;;;;;;3.25;0.52;;;15.60;89.30;;;;;;5071078;28;20028;-67
2021/03/14 12:55:07;;;;;;;4.53;0.50;;;15.60;89.40;;;;;;5068864;28;20361;-68
2021/03/14 12:57:35;;;;;;;6.65;0.73;;;15.60;88.70;;;;;;5070149;28;20485;-72
2021/03/14 13:00:12;;;;;;;3.75;0.57;;;15.60;89.50;;;;;;5076502;28;20076;-68
2021/03/14 13:02:40;;;;;;;3.38;0.60;;;15.60;89.20;;;;;;5062210;28;20610;-68
2021/03/14 13:05:08;;;;;;;3.75;1.05;;;15.60;88.90;;;;;;5063793;28;20029;-67